createdAt,value
2022-11-03T00:01:09.111Z,16.36
2022-11-03T00:06:06.693Z,16.30
2022-11-03T00:11:05.391Z,16.24
2022-11-03T00:16:04.452Z,16.35
2022-11-03T00:21:05.404Z,16.27
2022-11-03T00:26:10.051Z,16.30
2022-11-03T00:31:11.271Z,16.27
2022-11-03T00:36:11.294Z,16.31
2022-11-03T00:41:10.936Z,16.36
2022-11-03T00:46:08.734Z,16.44
2022-11-03T00:51:08.642Z,16.24
2022-11-03T00:56:06.516Z,16.26
2022-11-03T01:01:07.181Z,16.21
2022-11-03T01:06:26.991Z,16.29
2022-11-03T01:11:43.788Z,16.29
2022-11-03T01:16:41.410Z,16.14
2022-11-03T01:21:40.625Z,16.22
2022-11-03T01:26:37.872Z,16.13
2022-11-03T01:31:35.413Z,16.08
2022-11-03T01:36:35.885Z,16.03
2022-11-03T01:41:36.891Z,15.99
2022-11-03T01:46:39.947Z,15.88
2022-11-03T01:51:40.043Z,15.83
2022-11-03T01:56:38.308Z,15.85
2022-11-03T02:01:35.681Z,15.77
2022-11-03T02:06:33.466Z,15.75
2022-11-03T02:11:50.290Z,15.64
2022-11-03T02:16:49.980Z,15.64
2022-11-03T02:21:56.900Z,15.60
2022-11-03T02:26:56.183Z,15.64
2022-11-03T02:32:10.634Z,15.48
2022-11-03T02:37:11.786Z,15.61
2022-11-03T02:42:12.226Z,15.51
2022-11-03T02:47:11.281Z,15.55
2022-11-03T02:52:29.360Z,15.55
2022-11-03T02:57:34.283Z,15.50
2022-11-03T03:02:36.260Z,15.56
2022-11-03T03:07:37.254Z,15.23
2022-11-03T03:12:34.879Z,15.31
2022-11-03T03:17:51.272Z,15.19
2022-11-03T03:22:57.021Z,15.19
2022-11-03T03:27:55.734Z,15.06
2022-11-03T03:32:53.245Z,15.11
2022-11-03T03:37:53.919Z,15.14
2022-11-03T03:42:54.520Z,15.16
2022-11-03T03:48:05.686Z,15.06
2022-11-03T03:53:04.406Z,15.02
2022-11-03T03:58:01.986Z,15.08
2022-11-03T04:03:03.109Z,15.06
2022-11-03T04:08:03.431Z,15.00
2022-11-03T04:13:19.715Z,14.98
2022-11-03T04:18:39.067Z,15.06
2022-11-03T04:23:36.566Z,14.92
2022-11-03T04:28:34.258Z,14.90
2022-11-03T04:33:31.758Z,15.06
2022-11-03T04:38:32.345Z,15.04
2022-11-03T04:43:33.611Z,15.04
2022-11-03T04:48:32.703Z,15.01
2022-11-03T04:53:31.932Z,15.01
2022-11-03T04:58:32.231Z,15.01
2022-11-03T05:03:30.557Z,14.93
2022-11-03T05:08:31.389Z,14.95
2022-11-03T05:13:28.784Z,15.06
2022-11-03T05:18:29.847Z,15.00
2022-11-03T05:23:27.536Z,15.08
2022-11-03T05:28:33.820Z,15.17
2022-11-03T05:33:35.353Z,15.19
2022-11-03T05:38:33.307Z,15.22
2022-11-03T05:43:35.165Z,15.39
2022-11-03T05:48:35.909Z,15.46
2022-11-03T05:53:38.624Z,15.56
2022-11-03T05:58:38.003Z,15.70
2022-11-03T06:03:35.699Z,15.81
2022-11-03T06:08:34.742Z,15.98
2022-11-03T06:13:36.601Z,15.96
2022-11-03T06:18:35.464Z,16.01
2022-11-03T06:23:33.479Z,16.21
2022-11-03T06:28:35.142Z,16.17
2022-11-03T06:33:36.416Z,16.22
2022-11-03T06:38:34.952Z,16.37
2022-11-03T06:43:34.862Z,16.46
2022-11-03T06:48:33.702Z,16.40
2022-11-03T06:53:33.936Z,16.57
2022-11-03T06:58:33.355Z,16.63
2022-11-03T07:03:35.396Z,16.67
2022-11-03T07:08:36.548Z,16.80
2022-11-03T07:13:33.980Z,16.88
2022-11-03T07:18:39.679Z,17.04
2022-11-03T07:23:44.650Z,17.17
2022-11-03T07:28:46.039Z,17.32
2022-11-03T07:33:46.149Z,17.50
2022-11-03T07:38:43.702Z,17.59
2022-11-03T07:43:43.347Z,17.76
2022-11-03T07:48:44.797Z,17.85
2022-11-03T07:53:42.809Z,17.98
2022-11-03T07:58:42.674Z,17.97
2022-11-03T08:03:45.266Z,17.99
2022-11-03T08:08:44.391Z,18.08
2022-11-03T08:13:44.415Z,18.37
2022-11-03T08:18:46.572Z,18.36
2022-11-03T08:23:47.852Z,18.58
2022-11-03T08:28:47.966Z,18.63
2022-11-03T08:33:45.271Z,18.90
2022-11-03T08:38:42.843Z,18.76
2022-11-03T08:43:42.891Z,18.79
2022-11-03T08:48:42.936Z,19.23
2022-11-03T08:53:42.781Z,19.22
2022-11-03T08:58:40.224Z,19.28
2022-11-03T09:03:38.048Z,19.39
2022-11-03T09:13:57.843Z,19.40
2022-11-03T09:18:55.755Z,19.40
2022-11-03T09:23:53.513Z,19.46
2022-11-03T09:28:52.080Z,19.69
2022-11-03T09:33:51.882Z,19.62
2022-11-03T09:38:49.313Z,19.74
2022-11-03T09:43:47.200Z,19.69
2022-11-03T09:48:44.529Z,19.71
2022-11-03T09:53:46.142Z,19.82
2022-11-03T09:58:43.682Z,19.60
2022-11-03T10:03:42.100Z,19.92
2022-11-03T10:08:42.544Z,19.78
2022-11-03T10:13:43.513Z,19.74
2022-11-03T10:18:44.775Z,19.88
2022-11-03T10:23:42.804Z,20.13
2022-11-03T10:28:42.486Z,20.24
2022-11-03T10:33:40.886Z,20.19
2022-11-03T10:38:38.103Z,20.11
2022-11-03T10:43:36.196Z,20.44
2022-11-03T10:48:33.978Z,20.38
2022-11-03T10:53:31.732Z,20.75
2022-11-03T10:58:33.052Z,20.84
2022-11-03T11:03:34.217Z,21.02
2022-11-03T11:08:34.674Z,20.72
2022-11-03T11:13:35.457Z,21.08
2022-11-03T11:18:37.514Z,21.05
2022-11-03T11:23:39.707Z,21.32
2022-11-03T11:28:41.963Z,21.07
2022-11-03T11:33:43.668Z,21.38
2022-11-03T11:38:46.272Z,21.64
2022-11-03T11:43:47.731Z,21.36
2022-11-03T11:48:47.758Z,20.73
2022-11-03T11:54:16.243Z,21.11
2022-11-03T11:59:24.213Z,21.24
2022-11-03T12:04:33.531Z,21.44
2022-11-03T12:09:34.980Z,20.92
2022-11-03T12:14:44.830Z,20.29
2022-11-03T12:19:45.097Z,20.43
2022-11-03T12:25:01.820Z,20.52
2022-11-03T12:30:26.758Z,20.09
2022-11-03T12:35:24.436Z,20.06
2022-11-03T12:40:29.255Z,20.26
2022-11-03T12:45:46.646Z,20.04
2022-11-03T12:50:45.028Z,20.03
2022-11-03T12:55:44.920Z,19.89
2022-11-03T13:00:52.058Z,20.24
2022-11-03T13:06:13.091Z,19.94
2022-11-03T13:11:55.060Z,20.32
2022-11-03T13:17:05.971Z,20.66
2022-11-03T13:22:11.152Z,20.45
2022-11-03T13:27:10.140Z,20.44
2022-11-03T13:32:11.794Z,20.42
2022-11-03T13:37:14.370Z,20.00
2022-11-03T13:42:15.361Z,19.60
2022-11-03T13:48:15.560Z,19.67
2022-11-03T14:09:19.475Z,19.12
2022-11-03T14:14:25.854Z,19.11
2022-11-03T14:19:36.793Z,19.17
2022-11-03T14:24:42.679Z,19.14
2022-11-03T14:29:44.668Z,19.15
2022-11-03T14:34:45.614Z,19.09
2022-11-03T14:40:05.036Z,19.09
2022-11-03T14:45:20.359Z,18.87
2022-11-03T14:50:24.406Z,18.57
2022-11-03T14:55:27.688Z,18.46
2022-11-03T15:00:31.680Z,18.29
2022-11-03T15:05:58.347Z,18.25
2022-11-03T15:11:02.540Z,18.29
2022-11-03T15:16:07.611Z,18.14
2022-11-03T15:21:07.127Z,18.09
2022-11-03T15:26:13.463Z,18.04
2022-11-03T15:31:19.596Z,17.87
2022-11-03T15:36:21.363Z,17.60
2022-11-03T15:41:50.444Z,17.73
2022-11-03T15:46:53.381Z,17.60
2022-11-03T15:52:06.439Z,17.53
2022-11-03T15:57:09.618Z,17.42
2022-11-03T16:02:35.729Z,17.39
2022-11-03T16:07:44.454Z,17.31
2022-11-03T16:13:00.170Z,17.28
2022-11-03T16:18:10.835Z,17.23
2022-11-03T16:23:15.167Z,17.08
2022-11-03T16:28:20.673Z,17.01
2022-11-03T16:33:33.619Z,16.93
2022-11-03T16:38:54.995Z,16.75
2022-11-03T16:44:13.348Z,16.74
2022-11-03T16:49:27.346Z,16.76
2022-11-03T16:54:26.829Z,16.61
2022-11-03T16:59:27.821Z,16.65
2022-11-03T17:04:27.806Z,16.58
2022-11-03T17:09:27.528Z,16.51
2022-11-03T17:14:27.561Z,16.54
2022-11-03T17:19:27.582Z,16.46
2022-11-03T17:24:26.989Z,16.41
2022-11-03T17:29:48.645Z,16.31
2022-11-03T17:40:22.963Z,16.10
2022-11-03T17:45:32.183Z,16.11
2022-11-03T17:50:33.408Z,16.14
2022-11-03T17:55:37.594Z,15.95
2022-11-03T18:00:41.264Z,15.91
2022-11-03T18:05:40.060Z,15.89
2022-11-03T18:10:41.601Z,15.81
2022-11-03T18:15:43.148Z,15.80
2022-11-03T18:20:43.535Z,15.71
2022-11-03T18:25:46.711Z,15.68
2022-11-03T18:30:45.808Z,15.51
2022-11-03T18:35:45.436Z,15.56
2022-11-03T18:40:48.511Z,15.55
2022-11-03T18:45:48.384Z,15.48
2022-11-03T18:50:50.515Z,15.24
2022-11-03T18:55:52.984Z,15.26
2022-11-03T19:00:55.263Z,15.28
2022-11-03T19:05:54.779Z,15.44
2022-11-03T19:11:01.321Z,15.24
2022-11-03T19:16:03.496Z,15.12
2022-11-03T19:21:28.891Z,15.13
2022-11-03T19:26:36.741Z,15.02
2022-11-03T19:31:40.940Z,15.11
2022-11-03T19:36:40.411Z,15.06
2022-11-03T19:42:04.276Z,15.06
2022-11-03T19:47:18.100Z,14.97
2022-11-03T19:52:19.620Z,14.86
2022-11-03T19:57:22.718Z,14.56
2022-11-03T20:02:31.970Z,14.47
2022-11-03T20:07:31.749Z,14.62
2022-11-03T20:12:34.587Z,14.63
2022-11-03T20:17:35.601Z,14.43
2022-11-03T20:22:34.778Z,14.53
2022-11-03T20:27:33.902Z,14.50
2022-11-03T20:32:33.275Z,14.61
2022-11-03T20:37:34.385Z,14.66
2022-11-03T20:42:39.874Z,14.65
2022-11-03T20:47:39.053Z,14.70
2022-11-03T20:52:47.167Z,14.66
2022-11-03T20:57:46.958Z,14.74
2022-11-03T21:02:48.454Z,14.67
2022-11-03T21:07:49.197Z,14.44
2022-11-03T21:12:52.547Z,14.73
2022-11-03T21:18:17.215Z,14.61
2022-11-03T21:23:23.719Z,14.30
2022-11-03T21:28:23.939Z,13.99
2022-11-03T21:33:25.964Z,13.81
2022-11-03T21:38:30.996Z,13.62
2022-11-03T21:43:51.905Z,13.71
2022-11-03T21:49:14.621Z,13.95
2022-11-03T21:54:15.830Z,14.12
2022-11-03T21:59:17.530Z,14.11
2022-11-03T22:04:20.029Z,13.80
2022-11-03T22:09:20.265Z,13.91
2022-11-03T22:14:24.827Z,13.53
2022-11-03T22:19:47.359Z,13.53
2022-11-03T22:25:10.130Z,13.42
2022-11-03T22:30:29.746Z,13.04
2022-11-03T22:35:48.154Z,13.00
2022-11-03T22:41:07.591Z,13.01
2022-11-03T22:46:11.617Z,12.87
2022-11-03T22:51:14.409Z,12.92
2022-11-03T22:56:16.277Z,13.14
2022-11-03T23:01:21.323Z,12.90
2022-11-03T23:06:26.930Z,12.48
2022-11-03T23:11:32.795Z,12.39
2022-11-03T23:16:36.252Z,12.35
2022-11-03T23:21:34.722Z,12.40
2022-11-03T23:26:33.485Z,12.37
2022-11-03T23:31:33.163Z,12.34
2022-11-03T23:36:31.949Z,12.47
2022-11-03T23:41:32.718Z,12.59
2022-11-03T23:46:55.776Z,12.71
2022-11-03T23:51:55.622Z,13.00
2022-11-03T23:57:15.371Z,13.07
